SBRB Airport Information

Runway Information
Runway 6 Length 7080 ft width 148 ft
Elevation 0 ft Threshold 0 ft Heading 0
Runway 24 Length 7080 ft Width 148 ft
Elevation 0 ft Threshold 0 ft Heading 0
Airport Frequencies
Type APP Name RIO BRANCO Frequency 119.9 MHZ
Type TWR Name RIO BRANCO Frequency 118.7 MHZ
Airport Navaids
Type VOR-DME Name Branco Frequency 114200 KHZ
Type NDB Name Branco Frequency 355 KHZ
Airport Weather Information & NOTAM
ADDS - METARS form results

(2237 UTC 20 June 2018)
 
METAR text: SBRB 202200Z 21005KT CAVOK 27/13 Q1015
Conditions at: SBRB (RIO BRANCO/MEDIC, BR) observed 2200 UTC 20 June 2018
Temperature: 27.0°C (81°F)
Dewpoint: 13.0°C (55°F) [RH = 42%]
Pressure (altimeter): 29.97 inches Hg (1015.0 mb)
Winds: from the SSW (210 degrees) at 6 MPH (5 knots; 2.6 m/s)
Visibility: 6 or more miles (10+ km)
Ceiling: ceiling and visibility are OK
Clouds: unknown
Weather: no significant weather observed at this time